LIRFOSDI

Guest
Details From LIRF - Roma Fiumicino Leonardo Da Vinci
To OSDI - Damascus Intl
Flight Number -
Tags Decoded
Created
Modified
Stats Distance 1,254 nm / 2,323 km
Max Altitude 0 ft / 0 m
Waypoints 2
Social Downloads 0
Likes 0
Share VATSIM

Download

Looking for another format? Having issues loading an existing format? Contact us
Advertisement - Login to hide

Notes

Decoded

Route

LIRF OSDI

ID Type Via Altitude Latitude Longitude Leg Dist Tot Dist Heading (true) Name
O LIRF APT - 0 ft / 0 m 41.79932˚ 12.23212˚ - 0 nm - -
O OSDI APT - 0 ft / 0 m 33.41489˚ 36.50367˚ 1254 nm 1254 nm 106° / 121° -

Altitude Profile

Advertisement - Login to hide

Weather


0- 5 10 15 20 25 30 35+ Temperature / ° C

Clouds and Precipitation
Forecast for 2018-05-27 00:00 UTC. Updated 3 hours ago

Ground ~20,000 ft ~40,000 ft Winds

LIRF

Details ICAO LIRF (FCO)
Name Roma Fiumicino Leonardo Da Vinci
Region Italy
Timezone Europe/Rome (UTC+2.0)
Stats Elevation 15 ft / 5 m (AMSL)
Location 41.810809° 12.250897°
Runways 3
Magnetic Variation 3.042° E

METAR

LIRF 270150Z 32003KT CAVOK 18/16 Q1017 NOSIG

Decode

TAF

TAF LIRF 262300Z 2700/2806 VRB04KT CAVOK TEMPO 2701/2705 2000 BR BECMG 2708/2710 23012KT BECMG 2716/2718 VRB04KT

Decode

Departure Runways

ID Width Length Bearing (true) Bearing (mag) Surface Threshold Offset Overrun Length
07 148 ft / 45 m 10,835 ft / 3,302 m 69.67° 66.63° Asphalt 1,365 ft / 416 m 0 ft / 0 m
16L 197 ft / 60 m 12,832 ft / 3,911 m 162.67° 159.63° Asphalt 0 ft / 0 m 0 ft / 0 m
16R 197 ft / 60 m 12,822 ft / 3,908 m 162.66° 159.62° Asphalt 0 ft / 0 m 0 ft / 0 m
25 148 ft / 45 m 10,835 ft / 3,302 m 249.70° 246.66° Asphalt 0 ft / 0 m 0 ft / 0 m
34L 197 ft / 60 m 12,822 ft / 3,908 m 342.67° 339.63° Asphalt 1,053 ft / 321 m 0 ft / 0 m
34R 197 ft / 60 m 12,832 ft / 3,911 m 342.68° 339.64° Asphalt 0 ft / 0 m 0 ft / 0 m

OSDI

Details ICAO OSDI (DAM)
Name DAMASCUS INTL
Region Syria
Timezone Asia/Damascus (UTC+3.0)
Stats Elevation 2,020 ft / 616 m (AMSL)
Location 33.410635° 36.514265°
Runways 2
Magnetic Variation 4.908° E

METAR

OSDI 270200Z 02006KT CAVOK 15/07 Q1012

Decode

TAF

Not found

Destination Runways

ID Width Length Bearing (true) Bearing (mag) Surface Threshold Offset Overrun Length
05L 148 ft / 45 m 11,808 ft / 3,599 m 48.36° 43.45° Asphalt 0 ft / 0 m 197 ft / 60 m
05R 148 ft / 45 m 11,674 ft / 3,558 m 48.33° 43.42° Asphalt 0 ft / 0 m 197 ft / 60 m
23L 148 ft / 45 m 11,674 ft / 3,558 m 228.35° 223.44° Asphalt 0 ft / 0 m 197 ft / 60 m
23R 148 ft / 45 m 11,808 ft / 3,599 m 228.38° 223.47° Asphalt 0 ft / 0 m 197 ft / 60 m

Approach Navaids

Runway Type Ident Frequency Range Bearing (true) Bearing (mag) Slope Elevation
23R Localiser IDA 109.90 MHz 18 nm / 33 km 227.88° 222.97° - 2,033 ft / 620 m (AMSL)
23R Glidescope IDA 109.90 MHz 10 nm / 19 km 228.37° 223.46° 3.00° 2,033 ft / 620 m (AMSL)

Popular Alternatives